Aventura, FL

5:56 PM EDT on September 30, 2014 (GMT -0400)
North Miami Beach FIU | Change Station
CLOSE
Current Station
Personal Weather Station
Location: North Miami Beach, FL
Elevation: 39 ft
Nearby Weather Stations

Elev 39 ft 25.91 °N, 80.14 °W | Updated 12 seconds ago

Overcast
Overcast
83.5 °F
Feels Like 92 °F
N
2.0
Wind Variable Wind from SW
Gusts 4.0 mph

Today
High -- | Low -- °F
--% Chance of Precip.
Yesterday
High -- | Low -- °F
Precip. -- in
7:12 AM 7:08 PM
Waxing Crescent, 40% visible
Pressure 29.83 in
Visibility 10.0 miles
Clouds Clear
Heat Index 92 °F
Dew Point 76 °F
Humidity 79%
Rainfall 0.20 in
Snow Depth Not available.
UV 2 out of 12
Pollen 3.20 out of 12
Ozone Good
PM2.5 Good
Flu Activity Not available.
SPECI KOPF 302135Z 24007KT 10SM TS CLR 29/23 A2983 RMK AO2 TSB35 T02940233

More Conditions Fewer Conditions

Pressure 29.83 in
Visibility 10.0 miles
Clouds Clear
Heat Index 92 °F
Dew Point 76 °F
Humidity 79%
Rainfall 0.20 in
Snow Depth Not available.
UV 2 out of 12
Pollen 3.20 out of 12
Ozone Good
PM2.5 Good
Flu Activity Not available.
SPECI KOPF 302135Z 24007KT 10SM TS CLR 29/23 A2983 RMK AO2 TSB35 T02940233

More Conditions Fewer Conditions

Nowcast | as of 4:27 PM EDT on September 30, 2014

Heavy thunderstorms across Biscayne Bay continue to push east and further offshore. These storms are currently producing heavy rainfall and continuous lightning. Gusty winds of 30 to 40 mph will be possible within the heaviest storms over the next hour.

×

10-Day Weather Forecast

Almanac

Astronomy

Sep. 30, 2014 Rise Set
Actual Time 7:12 AM EDT 7:08 PM EDT
Civil Twilight 6:49 AM EDT 7:31 PM EDT
Nautical Twilight 6:22 AM EDT 7:57 PM EDT
Astronomical Twilight 5:55 AM EDT 8:24 PM EDT
Moon 12:53 PM EDT No Moon Set
Length of Visible Light 12h 41m
Length of Day
11h 55m
Tomorrow will be 1m 31s shorter.
Waxing Crescent, 40% of the Moon is Illuminated
Today
Waxing Crescent
Oct 1
First Quarter
Oct 8
Full
Oct 15
Last Quarter
Oct 23
New

Today's Extremes

State Highs State Lows

Community

WunderPhotos

Upload Photos

1,757,755 photos uploaded!

Nearby

Air Quality

  Air Quality AQ Index Pollutant
Yesterday Good
PM2.5
Yesterday Good
OZONE
Current Good
PM2.5
Current Good
OZONE
Tuesday Good
OZONE
Tuesday Good
PM2.5
Wednesday Good
OZONE
Wednesday Good
PM2.5

Snow Depth

Station Depth Elevation
No new snow has been reported.

Earthquake Activity

City Distance Mag. Time & Date
No recent earthquake activity has been reported nearby.
Minimum magnitude displayed is 2.5.

Coastal Water Temperatures

Place Temperature
Virginia Key, FL 84.9 °F

Nearby Weather Stations